createdAt,value
2018-01-13T00:01:52.243Z,103055.71
2018-01-13T00:04:17.995Z,103054.88
2018-01-13T00:06:43.754Z,103053.97
2018-01-13T00:09:09.495Z,103050.95
2018-01-13T00:11:35.231Z,103053.48
2018-01-13T00:14:00.981Z,103058.48
2018-01-13T00:16:26.731Z,103046.74
2018-01-13T00:18:52.481Z,103053.85
2018-01-13T00:21:18.234Z,103052.02
2018-01-13T00:23:43.986Z,103046.36
2018-01-13T00:26:09.738Z,103042.90
2018-01-13T00:28:35.494Z,103044.26
2018-01-13T00:31:01.247Z,103046.29
2018-01-13T00:33:26.994Z,103040.67
2018-01-13T00:35:52.746Z,103040.73
2018-01-13T00:38:18.502Z,103035.77
2018-01-13T00:40:44.245Z,103038.26
2018-01-13T00:43:10.011Z,103034.83
2018-01-13T00:45:35.762Z,103034.61
2018-01-13T00:48:01.508Z,103039.70
2018-01-13T00:50:27.258Z,103036.77
2018-01-13T00:52:52.999Z,103034.87
2018-01-13T00:55:18.770Z,103035.67
2018-01-13T00:57:44.506Z,103044.66
2018-01-13T01:00:10.251Z,103039.91
2018-01-13T01:02:36.002Z,103038.13
2018-01-13T01:05:01.758Z,103043.87
2018-01-13T01:07:27.490Z,103036.78
2018-01-13T01:09:53.474Z,103040.05
2018-01-13T01:12:19.211Z,103038.56
2018-01-13T01:14:44.950Z,103048.66
2018-01-13T01:17:10.683Z,103045.41
2018-01-13T01:19:36.438Z,103037.61
2018-01-13T01:22:02.171Z,103049.83
2018-01-13T01:24:27.918Z,103046.41
2018-01-13T01:26:53.671Z,103051.71
2018-01-13T01:29:19.418Z,103048.27
2018-01-13T01:31:45.166Z,103051.20
2018-01-13T01:34:10.917Z,103046.58
2018-01-13T01:36:37.314Z,103052.56
2018-01-13T01:39:03.336Z,103052.44
2018-01-13T01:41:29.366Z,103052.42
2018-01-13T01:43:55.119Z,103055.75
2018-01-13T01:46:20.891Z,103050.34
2018-01-13T01:48:46.631Z,103050.22
2018-01-13T01:51:12.386Z,103054.98
2018-01-13T01:53:38.121Z,103047.09
2018-01-13T01:56:04.486Z,103054.05
2018-01-13T01:58:30.224Z,103053.28
2018-01-13T02:00:56.239Z,103061.81
2018-01-13T02:03:22.002Z,103053.09
2018-01-13T02:05:47.755Z,103050.08
2018-01-13T02:08:13.493Z,103049.91
2018-01-13T02:10:39.222Z,103052.29
2018-01-13T02:13:04.975Z,103052.75
2018-01-13T02:15:30.721Z,103043.68
2018-01-13T02:17:56.470Z,103044.48
2018-01-13T02:20:23.459Z,103041.22
2018-01-13T02:22:49.803Z,103037.09
2018-01-13T02:25:15.860Z,103037.16
2018-01-13T02:27:41.603Z,103037.44
2018-01-13T02:30:07.351Z,103039.31
2018-01-13T02:32:33.402Z,103041.92
2018-01-13T02:34:59.434Z,103038.08
2018-01-13T02:37:25.184Z,103042.43
2018-01-13T02:39:50.934Z,103037.22
2018-01-13T02:42:16.682Z,103037.83
2018-01-13T02:44:42.457Z,103035.35
2018-01-13T02:47:08.462Z,103035.06
2018-01-13T02:49:34.244Z,103028.75
2018-01-13T02:52:00.000Z,103027.19
2018-01-13T02:54:25.774Z,103031.81
2018-01-13T02:56:51.524Z,103026.66
2018-01-13T02:59:17.291Z,103034.40
2018-01-13T03:01:43.046Z,103028.02
2018-01-13T03:04:08.813Z,103027.34
2018-01-13T03:06:34.578Z,103032.24
2018-01-13T03:09:00.335Z,103030.42
2018-01-13T03:11:26.094Z,103029.87
2018-01-13T03:13:51.856Z,103019.92
2018-01-13T03:16:17.602Z,103023.12
2018-01-13T03:18:43.348Z,103021.08
2018-01-13T03:21:16.227Z,103018.02
2018-01-13T03:23:41.978Z,103020.37
2018-01-13T03:26:07.739Z,103013.20
2018-01-13T03:28:33.491Z,103019.00
2018-01-13T03:30:59.270Z,103020.31
2018-01-13T03:33:25.021Z,103015.54
2018-01-13T03:35:50.773Z,103014.70
2018-01-13T03:38:16.528Z,103022.61
2018-01-13T03:40:42.303Z,103020.45
2018-01-13T03:43:08.057Z,103021.23
2018-01-13T03:45:33.810Z,103023.84
2018-01-13T03:47:59.563Z,103013.08
2018-01-13T03:50:25.306Z,103016.47
2018-01-13T03:52:51.039Z,103009.42
2018-01-13T03:55:16.786Z,103004.13
2018-01-13T03:57:42.558Z,103003.82
2018-01-13T04:00:08.307Z,103006.18
2018-01-13T04:02:34.055Z,103007.42
2018-01-13T04:04:59.806Z,103002.66
2018-01-13T04:07:25.566Z,103005.27
2018-01-13T04:09:51.301Z,103003.50
2018-01-13T04:12:17.811Z,103004.03
2018-01-13T04:14:43.554Z,103003.89
2018-01-13T04:17:09.307Z,103003.63
2018-01-13T04:19:35.039Z,103004.03
2018-01-13T04:22:00.790Z,103011.71
2018-01-13T04:24:26.553Z,103005.13
2018-01-13T04:26:52.305Z,103006.05
2018-01-13T04:29:18.055Z,103008.48
2018-01-13T04:31:43.827Z,103008.34
2018-01-13T04:34:09.566Z,103001.02
2018-01-13T04:36:35.320Z,103006.69
2018-01-13T04:39:01.062Z,103009.42
2018-01-13T04:41:26.823Z,103002.20
2018-01-13T04:43:52.559Z,103001.59
2018-01-13T04:46:18.313Z,103009.55
2018-01-13T04:48:44.066Z,103002.06
2018-01-13T04:51:09.830Z,103005.33
2018-01-13T04:53:35.573Z,103003.73
2018-01-13T04:56:01.324Z,103001.08
2018-01-13T04:58:27.058Z,102999.98
2018-01-13T05:00:52.808Z,103003.37
2018-01-13T05:03:18.551Z,103000.98
2018-01-13T05:05:44.298Z,102996.19
2018-01-13T05:08:10.050Z,103000.91
2018-01-13T05:10:35.826Z,102997.08
2018-01-13T05:13:01.570Z,103001.45
2018-01-13T05:15:27.319Z,102999.61
2018-01-13T05:17:53.088Z,102998.38
2018-01-13T05:20:18.903Z,102998.09
2018-01-13T05:22:44.646Z,102993.19
2018-01-13T05:25:10.388Z,102992.73
2018-01-13T05:27:36.150Z,102997.41
2018-01-13T05:30:01.905Z,102994.88
2018-01-13T05:32:27.656Z,102990.89
2018-01-13T05:34:53.452Z,102990.38
2018-01-13T05:37:19.175Z,102991.50
2018-01-13T05:39:44.913Z,102994.33
2018-01-13T05:42:10.659Z,103000.87
2018-01-13T05:44:36.406Z,102999.70
2018-01-13T05:47:02.178Z,102996.31
2018-01-13T05:49:27.928Z,102994.61
2018-01-13T05:51:53.685Z,102999.77
2018-01-13T05:54:19.430Z,102992.48
2018-01-13T05:56:45.186Z,102998.47
2018-01-13T05:59:10.951Z,103005.52
2018-01-13T06:01:36.709Z,103003.44
2018-01-13T06:04:02.483Z,103003.23
2018-01-13T06:06:28.236Z,103000.17
2018-01-13T06:08:53.974Z,103000.17
2018-01-13T06:11:19.727Z,103008.06
2018-01-13T06:13:45.489Z,103006.36
2018-01-13T06:16:11.235Z,103006.42
2018-01-13T06:18:37.000Z,102996.31
2018-01-13T06:21:02.736Z,102998.02
2018-01-13T06:23:28.498Z,103004.52
2018-01-13T06:25:54.235Z,103001.77
2018-01-13T06:28:19.989Z,103002.77
2018-01-13T06:30:45.731Z,103003.59
2018-01-13T06:33:11.491Z,103005.82
2018-01-13T06:35:37.238Z,103008.11
2018-01-13T06:38:03.018Z,103004.34
2018-01-13T06:40:28.754Z,103003.35
2018-01-13T06:42:54.494Z,103005.00
2018-01-13T06:45:20.231Z,103008.72
2018-01-13T06:47:46.014Z,103003.44
2018-01-13T06:50:11.757Z,103004.09
2018-01-13T06:52:37.519Z,103008.46
2018-01-13T06:55:03.265Z,103005.40
2018-01-13T06:57:29.015Z,103007.09
2018-01-13T06:59:54.766Z,103009.72
2018-01-13T07:02:20.507Z,103010.45
2018-01-13T07:04:46.258Z,103008.01
2018-01-13T07:07:11.995Z,103005.20
2018-01-13T07:09:38.737Z,103002.72
2018-01-13T07:12:04.484Z,103009.50
2018-01-13T07:14:30.235Z,102999.96
2018-01-13T07:16:55.986Z,103007.03
2018-01-13T07:19:21.742Z,103006.09
2018-01-13T07:21:47.482Z,103013.34
2018-01-13T07:24:13.227Z,103008.06
2018-01-13T07:26:38.979Z,103007.59
2018-01-13T07:29:04.739Z,103013.40
2018-01-13T07:31:30.478Z,103014.25
2018-01-13T07:33:56.231Z,103012.50
2018-01-13T07:36:21.994Z,103018.28
2018-01-13T07:38:47.741Z,103023.50
2018-01-13T07:41:13.483Z,103021.76
2018-01-13T07:43:39.255Z,103019.92
2018-01-13T07:46:04.990Z,103031.27
2018-01-13T07:48:30.738Z,103037.72
2018-01-13T07:50:56.495Z,103041.77
2018-01-13T07:53:22.230Z,103043.84
2018-01-13T07:55:47.985Z,103035.88
2018-01-13T07:58:13.731Z,103045.88
2018-01-13T08:00:39.492Z,103041.61
2018-01-13T08:03:05.248Z,103035.42
2018-01-13T08:05:30.997Z,103041.88
2018-01-13T08:07:56.742Z,103037.34
2018-01-13T08:10:22.499Z,103034.19
2018-01-13T08:12:48.238Z,103036.28
2018-01-13T08:15:13.987Z,103028.64
2018-01-13T08:17:39.739Z,103029.36
2018-01-13T08:20:05.495Z,103029.42
2018-01-13T08:22:31.246Z,103027.22
2018-01-13T08:24:57.001Z,103026.30
2018-01-13T08:27:22.755Z,103030.34
2018-01-13T08:29:48.527Z,103031.70
2018-01-13T08:32:14.266Z,103034.00
2018-01-13T08:34:40.002Z,103040.52
2018-01-13T08:37:05.763Z,103037.96
2018-01-13T08:39:31.507Z,103041.34
2018-01-13T08:41:57.256Z,103037.42
2018-01-13T08:44:22.992Z,103036.66
2018-01-13T08:46:48.766Z,103045.00
2018-01-13T08:49:14.503Z,103044.73
2018-01-13T08:51:40.247Z,103049.24
2018-01-13T08:54:05.996Z,103037.51
2018-01-13T08:56:31.764Z,103046.76
2018-01-13T08:58:57.527Z,103042.55
2018-01-13T09:01:23.295Z,103041.17
2018-01-13T09:03:49.043Z,103042.61
2018-01-13T09:06:14.804Z,103047.77
2018-01-13T09:08:40.554Z,103040.02
2018-01-13T09:11:06.306Z,103050.52
2018-01-13T09:13:32.058Z,103052.59
2018-01-13T09:15:57.807Z,103049.98
2018-01-13T09:18:23.552Z,103051.61
2018-01-13T09:20:49.301Z,103053.74
2018-01-13T09:23:15.071Z,103058.96
2018-01-13T09:25:40.818Z,103056.35
2018-01-13T09:28:06.575Z,103060.89
2018-01-13T09:30:32.322Z,103052.89
2018-01-13T09:32:58.084Z,103059.41
2018-01-13T09:35:23.827Z,103061.26
2018-01-13T09:37:49.584Z,103056.84
2018-01-13T09:40:15.342Z,103069.08
2018-01-13T09:42:41.091Z,103062.11
2018-01-13T09:45:06.845Z,103064.41
2018-01-13T09:47:32.608Z,103061.47
2018-01-13T09:49:58.359Z,103062.46
2018-01-13T09:52:24.116Z,103061.85
2018-01-13T09:54:49.947Z,103065.15
2018-01-13T09:57:15.698Z,103069.55
2018-01-13T09:59:41.450Z,103072.51
2018-01-13T10:02:07.208Z,103080.70
2018-01-13T10:04:32.951Z,103078.48
2018-01-13T10:06:58.727Z,103071.89
2018-01-13T10:09:24.464Z,103079.27
2018-01-13T10:11:50.199Z,103075.22
2018-01-13T10:14:15.964Z,103068.77
2018-01-13T10:16:41.724Z,103065.15
2018-01-13T10:19:07.540Z,103059.43
2018-01-13T10:21:33.303Z,103067.84
2018-01-13T10:23:59.050Z,103069.22
2018-01-13T10:26:24.806Z,103062.31
2018-01-13T10:28:50.555Z,103064.55
2018-01-13T10:31:17.299Z,103061.36
2018-01-13T10:33:43.156Z,103065.40
2018-01-13T10:36:08.888Z,103063.97
2018-01-13T10:38:34.643Z,103067.95
2018-01-13T10:41:00.708Z,103069.33
2018-01-13T10:43:26.491Z,103073.70
2018-01-13T10:45:52.501Z,103074.27
2018-01-13T10:48:18.566Z,103075.05
2018-01-13T10:50:44.306Z,103065.20
2018-01-13T10:53:10.078Z,103070.84
2018-01-13T10:55:35.821Z,103070.47
2018-01-13T10:58:01.559Z,103066.52
2018-01-13T11:00:27.390Z,103067.10
2018-01-13T11:02:53.154Z,103068.69
2018-01-13T11:05:19.228Z,103066.01
2018-01-13T11:07:45.067Z,103065.61
2018-01-13T11:10:12.027Z,103067.05
2018-01-13T11:12:37.767Z,103063.52
2018-01-13T11:15:03.550Z,103064.04
2018-01-13T11:17:29.288Z,103063.47
2018-01-13T11:19:55.031Z,103055.26
2018-01-13T11:22:20.838Z,103062.16
2018-01-13T11:24:46.707Z,103057.61
2018-01-13T11:27:12.453Z,103056.69
2018-01-13T11:29:38.211Z,103056.28
2018-01-13T11:32:04.179Z,103055.44
2018-01-13T11:34:29.994Z,103054.27
2018-01-13T11:36:55.743Z,103059.41
2018-01-13T11:39:21.506Z,103056.34
2018-01-13T11:41:47.264Z,103050.36
2018-01-13T11:44:13.011Z,103055.26
2018-01-13T11:46:38.782Z,103048.45
2018-01-13T11:49:04.527Z,103042.17
2018-01-13T11:51:30.279Z,103043.47
2018-01-13T11:53:56.149Z,103034.83
2018-01-13T11:56:21.906Z,103031.88
2018-01-13T11:58:47.653Z,103036.70
2018-01-13T12:01:13.419Z,103037.08
2018-01-13T12:03:39.175Z,103036.81
2018-01-13T12:06:04.934Z,103035.38
2018-01-13T12:08:30.663Z,103029.53
2018-01-13T12:10:56.426Z,103033.05
2018-01-13T12:13:22.188Z,103028.88
2018-01-13T12:15:47.959Z,103029.84
2018-01-13T12:18:13.711Z,103035.79
2018-01-13T12:20:39.462Z,103033.45
2018-01-13T12:23:05.221Z,103039.13
2018-01-13T12:25:30.991Z,103028.09
2018-01-13T12:27:56.776Z,103040.19
2018-01-13T12:30:22.585Z,103033.58
2018-01-13T12:32:48.333Z,103040.95
2018-01-13T12:35:14.159Z,103027.96
2018-01-13T12:37:39.853Z,103030.26
2018-01-13T12:40:05.614Z,103024.66
2018-01-13T12:42:31.415Z,103020.20
2018-01-13T12:44:57.253Z,103021.39
2018-01-13T12:47:23.079Z,103018.47
2018-01-13T12:49:48.819Z,103017.48
2018-01-13T12:52:14.567Z,103013.63
2018-01-13T12:54:40.319Z,103014.47
2018-01-13T12:57:06.077Z,103012.19
2018-01-13T12:59:31.839Z,103011.86
2018-01-13T13:01:57.603Z,103009.34
2018-01-13T13:04:23.351Z,103004.89
2018-01-13T13:06:49.143Z,103006.64
2018-01-13T13:09:14.883Z,103016.24
2018-01-13T13:11:40.607Z,103015.33
2018-01-13T13:14:06.343Z,103006.27
2018-01-13T13:16:32.086Z,103011.22
2018-01-13T13:18:57.855Z,103014.34
2018-01-13T13:21:23.603Z,103010.64
2018-01-13T13:23:49.354Z,103003.06
2018-01-13T13:26:15.107Z,103002.95
2018-01-13T13:28:40.863Z,103007.16
2018-01-13T13:31:06.629Z,103007.16
2018-01-13T13:33:32.443Z,103007.70
2018-01-13T13:35:58.247Z,103001.58
2018-01-13T13:38:24.014Z,102999.34
2018-01-13T13:40:49.791Z,103005.86
2018-01-13T13:43:22.508Z,102997.97
2018-01-13T13:45:48.263Z,103009.61
2018-01-13T13:48:14.113Z,102999.63
2018-01-13T13:50:39.940Z,103000.13
2018-01-13T13:53:05.694Z,103001.83
2018-01-13T13:55:31.446Z,103009.72
2018-01-13T13:57:57.195Z,103007.95
2018-01-13T14:00:22.971Z,103006.28
2018-01-13T14:02:48.714Z,103001.95
2018-01-13T14:05:14.467Z,102996.09
2018-01-13T14:07:40.204Z,102994.08
2018-01-13T14:10:05.960Z,102996.16
2018-01-13T14:12:31.722Z,102995.43
2018-01-13T14:14:58.028Z,102998.30
2018-01-13T14:17:23.246Z,102989.58
2018-01-13T14:19:49.003Z,102989.11
2018-01-13T14:22:14.748Z,102992.03
2018-01-13T14:24:40.509Z,102986.90
2018-01-13T14:27:06.255Z,102991.27
2018-01-13T14:29:32.051Z,102992.56
2018-01-13T14:31:57.843Z,102995.11
2018-01-13T14:34:23.586Z,102989.13
2018-01-13T14:36:49.343Z,102997.33
2018-01-13T14:39:15.143Z,102995.51
2018-01-13T14:41:40.887Z,102998.69
2018-01-13T14:44:06.644Z,103004.69
2018-01-13T14:46:32.395Z,102997.83
2018-01-13T14:48:58.155Z,102997.78
2018-01-13T14:51:23.977Z,102994.05
2018-01-13T14:53:49.681Z,102997.56
2018-01-13T14:56:15.439Z,102997.84
2018-01-13T14:58:41.170Z,103000.97
2018-01-13T15:01:06.915Z,102993.53
2018-01-13T15:03:32.659Z,102998.81
2018-01-13T15:05:58.412Z,103003.17
2018-01-13T15:08:24.154Z,103000.83
2018-01-13T15:10:49.907Z,103005.66
2018-01-13T15:13:15.664Z,103006.05
2018-01-13T15:15:41.426Z,103010.74
2018-01-13T15:18:07.180Z,103014.63
2018-01-13T15:20:32.935Z,103006.67
2018-01-13T15:22:58.699Z,103014.25
2018-01-13T15:25:24.451Z,103011.70
2018-01-13T15:27:50.205Z,103006.47
2018-01-13T15:30:15.956Z,103005.94
2018-01-13T15:32:41.719Z,103002.02
2018-01-13T15:35:07.472Z,103007.17
2018-01-13T15:37:33.241Z,103005.42
2018-01-13T15:39:59.003Z,103000.19
2018-01-13T15:42:24.772Z,103005.80
2018-01-13T15:44:50.525Z,103004.97
2018-01-13T15:47:16.287Z,103013.53
2018-01-13T15:49:42.039Z,103011.73
2018-01-13T15:52:07.802Z,103012.56
2018-01-13T15:54:33.555Z,103013.08
2018-01-13T15:56:59.321Z,103009.55
2018-01-13T15:59:25.076Z,103007.02
2018-01-13T16:01:50.826Z,103013.60
2018-01-13T16:04:16.576Z,103012.49
2018-01-13T16:06:42.332Z,103008.79
2018-01-13T16:09:08.093Z,103007.67
2018-01-13T16:11:33.850Z,103016.59
2018-01-13T16:13:59.599Z,103014.81
2018-01-13T16:16:25.352Z,103025.17
2018-01-13T16:18:51.108Z,103017.95
2018-01-13T16:21:16.839Z,103018.98
2018-01-13T16:23:42.635Z,103006.88
2018-01-13T16:26:08.437Z,103003.98
2018-01-13T16:28:34.195Z,103001.30
2018-01-13T16:30:59.951Z,103001.75
2018-01-13T16:33:25.747Z,103003.60
2018-01-13T16:35:51.480Z,103001.89
2018-01-13T16:38:17.230Z,103004.69
2018-01-13T16:40:42.985Z,103012.16
2018-01-13T16:43:08.778Z,102997.70
2018-01-13T16:45:34.514Z,103005.78
2018-01-13T16:48:00.286Z,102996.17
2018-01-13T16:50:26.034Z,103004.53
2018-01-13T16:52:51.787Z,103001.09
2018-01-13T16:55:17.517Z,103000.56
2018-01-13T16:57:43.315Z,102997.48
2018-01-13T17:00:09.093Z,103000.93
2018-01-13T17:02:34.896Z,102999.87
2018-01-13T17:05:00.663Z,103001.73
2018-01-13T17:07:26.415Z,103003.79
2018-01-13T17:09:52.166Z,102987.47
2018-01-13T17:12:17.915Z,102993.52
2018-01-13T17:14:43.679Z,102996.12
2018-01-13T17:17:09.422Z,102991.14
2018-01-13T17:19:35.195Z,102998.81
2018-01-13T17:22:00.931Z,102998.30
2018-01-13T17:24:26.675Z,103001.12
2018-01-13T17:26:52.428Z,102993.17
2018-01-13T17:29:18.176Z,102992.57
2018-01-13T17:31:43.922Z,102990.34
2018-01-13T17:34:09.684Z,102988.52
2018-01-13T17:36:35.428Z,102987.14
2018-01-13T17:39:01.183Z,102987.38
2018-01-13T17:41:26.945Z,102992.16
2018-01-13T17:43:52.680Z,102989.61
2018-01-13T17:46:18.414Z,102992.97
2018-01-13T17:48:44.203Z,102988.00
2018-01-13T17:51:09.972Z,102987.69
2018-01-13T17:53:35.736Z,102986.56
2018-01-13T17:56:01.496Z,102988.84
2018-01-13T17:58:27.251Z,102992.06
2018-01-13T18:00:53.006Z,102992.55
2018-01-13T18:03:18.758Z,102991.86
2018-01-13T18:05:44.514Z,102989.72
2018-01-13T18:08:10.258Z,102991.48
2018-01-13T18:10:36.020Z,102994.00
2018-01-13T18:13:01.769Z,102990.09
2018-01-13T18:15:27.519Z,102994.63
2018-01-13T18:17:53.258Z,102998.21
2018-01-13T18:20:19.023Z,102992.86
2018-01-13T18:22:44.786Z,102988.14
2018-01-13T18:25:10.555Z,102984.34
2018-01-13T18:27:36.311Z,102993.20
2018-01-13T18:30:02.072Z,102997.16
2018-01-13T18:32:27.834Z,103003.97
2018-01-13T18:34:53.602Z,103005.87
2018-01-13T18:37:19.363Z,102998.26
2018-01-13T18:39:45.115Z,102999.22
2018-01-13T18:42:10.875Z,102995.11
2018-01-13T18:44:36.674Z,102999.02
2018-01-13T18:47:02.430Z,102999.47
2018-01-13T18:49:28.186Z,103004.12
2018-01-13T18:51:53.947Z,102999.86
2018-01-13T18:54:19.698Z,103002.82
2018-01-13T18:56:45.446Z,103013.25
2018-01-13T18:59:11.204Z,103012.42
2018-01-13T19:01:36.982Z,103006.50
2018-01-13T19:04:02.727Z,103012.27
2018-01-13T19:06:28.496Z,103007.14
2018-01-13T19:08:54.230Z,103013.18
2018-01-13T19:11:19.975Z,103012.27
2018-01-13T19:13:45.715Z,103012.80
2018-01-13T19:16:11.478Z,103017.77
2018-01-13T19:18:37.234Z,103006.95
2018-01-13T19:21:02.990Z,103006.99
2018-01-13T19:23:28.749Z,103012.86
2018-01-13T19:25:54.487Z,103006.89
2018-01-13T19:28:20.246Z,103015.03
2018-01-13T19:30:46.008Z,103018.78
2018-01-13T19:33:11.777Z,103013.27
2018-01-13T19:35:37.518Z,103003.77
2018-01-13T19:38:03.272Z,103010.05
2018-01-13T19:40:29.022Z,103013.85
2018-01-13T19:42:54.766Z,103013.55
2018-01-13T19:45:20.518Z,103010.04
2018-01-13T19:47:46.280Z,103009.11
2018-01-13T19:50:12.034Z,103013.79
2018-01-13T19:52:37.795Z,103016.55
2018-01-13T19:55:03.538Z,103018.09
2018-01-13T19:57:29.308Z,103014.62
2018-01-13T19:59:55.042Z,103023.36
2018-01-13T20:02:20.788Z,103020.89
2018-01-13T20:04:46.538Z,103031.69
2018-01-13T20:07:12.281Z,103033.31
2018-01-13T20:09:38.035Z,103037.44
2018-01-13T20:12:03.791Z,103032.45
2018-01-13T20:14:29.648Z,103034.46
2018-01-13T20:16:55.396Z,103032.23
2018-01-13T20:19:21.161Z,103022.97
2018-01-13T20:21:46.907Z,103025.26
2018-01-13T20:24:12.746Z,103020.53
2018-01-13T20:26:38.865Z,103021.75
2018-01-13T20:29:04.678Z,103024.96
2018-01-13T20:31:30.426Z,103014.80
2018-01-13T20:33:56.246Z,103010.88
2018-01-13T20:36:21.995Z,103007.28
2018-01-13T20:38:47.759Z,102992.11
2018-01-13T20:41:13.818Z,103001.48
2018-01-13T20:43:39.579Z,102997.34
2018-01-13T20:46:05.616Z,103006.99
2018-01-13T20:48:31.376Z,102998.56
2018-01-13T20:50:57.130Z,102998.11
2018-01-13T20:53:22.883Z,103001.06
2018-01-13T20:55:48.639Z,103010.27
2018-01-13T20:58:14.395Z,103002.14
2018-01-13T21:00:40.157Z,103009.57
2018-01-13T21:03:05.898Z,103002.52
2018-01-13T21:05:31.668Z,103003.44
2018-01-13T21:07:57.415Z,102997.79
2018-01-13T21:10:23.243Z,102991.61
2018-01-13T21:12:48.947Z,102989.14
2018-01-13T21:15:14.713Z,102988.68
2018-01-13T21:17:40.455Z,102992.13
2018-01-13T21:20:06.208Z,102991.38
2018-01-13T21:22:31.943Z,102992.95
2018-01-13T21:24:57.751Z,102996.17
2018-01-13T21:27:23.459Z,102993.04
2018-01-13T21:29:49.319Z,102986.98
2018-01-13T21:32:15.082Z,102990.44
2018-01-13T21:34:40.878Z,102982.34
2018-01-13T21:37:06.614Z,102981.48
2018-01-13T21:39:32.375Z,102978.44
2018-01-13T21:41:58.127Z,102982.89
2018-01-13T21:44:23.894Z,102983.81
2018-01-13T21:46:49.647Z,102987.02
2018-01-13T21:49:15.404Z,102991.77
2018-01-13T21:51:41.167Z,102994.51
2018-01-13T21:54:06.918Z,102992.23
2018-01-13T21:56:32.676Z,102994.43
2018-01-13T21:58:58.418Z,102991.92
2018-01-13T22:01:24.182Z,102984.42
2018-01-13T22:03:50.497Z,102985.48
2018-01-13T22:06:16.275Z,102981.10
2018-01-13T22:08:42.031Z,102984.43
2018-01-13T22:11:07.841Z,102977.08
2018-01-13T22:13:33.574Z,102984.41
2018-01-13T22:15:59.318Z,102978.05
2018-01-13T22:18:25.124Z,102983.58
2018-01-13T22:20:50.879Z,102984.61
2018-01-13T22:23:16.639Z,102974.02
2018-01-13T22:25:42.395Z,102982.78
2018-01-13T22:28:08.134Z,102987.56
2018-01-13T22:30:33.881Z,102971.55
2018-01-13T22:32:59.642Z,102974.23
2018-01-13T22:35:25.388Z,102971.30
2018-01-13T22:37:51.143Z,102961.84
2018-01-13T22:40:16.902Z,102966.72
2018-01-13T22:42:42.678Z,102965.05
2018-01-13T22:45:08.431Z,102961.42
2018-01-13T22:47:34.199Z,102962.14
2018-01-13T22:49:59.939Z,102956.99
2018-01-13T22:52:25.701Z,102962.67
2018-01-13T22:54:51.454Z,102965.25
2018-01-13T22:57:17.209Z,102965.42
2018-01-13T22:59:42.980Z,102962.20
2018-01-13T23:02:08.719Z,102972.21
2018-01-13T23:04:34.460Z,102961.82
2018-01-13T23:07:00.236Z,102962.22
2018-01-13T23:09:25.971Z,102954.48
2018-01-13T23:11:51.719Z,102955.84
2018-01-13T23:14:17.478Z,102949.86
2018-01-13T23:16:43.226Z,102953.78
2018-01-13T23:19:08.982Z,102961.58
2018-01-13T23:21:34.740Z,102950.66
2018-01-13T23:24:00.495Z,102950.80
2018-01-13T23:26:26.233Z,102946.05
2018-01-13T23:28:51.988Z,102944.98
2018-01-13T23:31:17.733Z,102941.92
2018-01-13T23:33:43.487Z,102940.61
2018-01-13T23:36:09.224Z,102939.77
2018-01-13T23:38:34.982Z,102935.47
2018-01-13T23:41:00.730Z,102939.00
2018-01-13T23:43:26.491Z,102940.83
2018-01-13T23:45:52.258Z,102934.32
2018-01-13T23:48:18.052Z,102936.14
2018-01-13T23:50:43.802Z,102932.72
2018-01-13T23:53:09.538Z,102930.88
2018-01-13T23:55:35.309Z,102932.64
2018-01-13T23:58:01.080Z,102930.11
